Time;durP1;ratioP1;P1;durP2;ratioP2;P2;SDS_P1;SDS_P2;PMS_P1;PMS_P2;Temp;Humidity;BMP_temperature;BMP_pressure;BME280_temperature;BME280_humidity;BME280_pressure;Samples;Min_cycle;Max_cycle;Signal;HPM_P1;HPM_P2
2023/07/13 00:00:26;;;;;;;;;;;19.10;98.20;;;;;;7326477;19;110396;-63
2023/07/13 00:02:54;;;;;;;;;;;19.00;98.70;;;;;;7333920;19;109181;-64
2023/07/13 00:05:21;;;;;;;;;;;19.00;98.80;;;;;;7327433;19;110765;-64
2023/07/13 00:07:49;;;;;;;;;;;19.00;98.80;;;;;;7332353;19;108543;-64
2023/07/13 00:10:17;;;;;;;;;;;18.90;98.70;;;;;;7326559;19;109931;-64
2023/07/13 00:12:44;;;;;;;;;;;18.90;98.80;;;;;;7331034;19;110334;-64
2023/07/13 00:15:13;;;;;;;;;;;18.90;99.00;;;;;;7331284;19;110658;-64
2023/07/13 00:17:40;;;;;;;;;;;18.90;99.00;;;;;;7332064;19;109912;-63
2023/07/13 00:20:07;;;;;;;;;;;18.90;99.20;;;;;;7334879;19;109863;-63
2023/07/13 00:22:35;;;;;;;;;;;18.90;99.50;;;;;;7329092;19;109104;-66
2023/07/13 00:25:02;;;;;;;;;;;18.80;99.90;;;;;;7330160;19;109636;-63
2023/07/13 00:27:32;;;;;;;;;;;18.80;99.50;;;;;;7333586;19;108374;-63
2023/07/13 00:29:59;;;;;;;;;;;18.70;99.90;;;;;;7331226;19;109086;-63
2023/07/13 00:32:26;;;;;;;;;;;18.70;99.90;;;;;;7329724;19;110559;-63
2023/07/13 00:34:54;;;;;;;;;;;18.70;99.70;;;;;;7329709;19;109901;-63
2023/07/13 00:37:21;;;;;;;;;;;18.70;99.90;;;;;;7327748;19;110555;-63
2023/07/13 00:39:48;;;;;;;;;;;18.60;99.90;;;;;;7331568;19;108997;-63
2023/07/13 00:42:16;;;;;;;;;;;18.60;99.90;;;;;;7331431;19;108961;-64
2023/07/13 00:45:00;;;;;;;;;;;18.60;99.90;;;;;;7333449;19;109243;-65
2023/07/13 00:47:27;;;;;;;;;;;18.60;99.90;;;;;;7340210;19;108955;-63
2023/07/13 00:49:54;;;;;;;;;;;18.60;99.90;;;;;;7341714;19;108840;-63
2023/07/13 00:52:21;;;;;;;;;;;18.60;99.90;;;;;;7336956;19;110918;-63
2023/07/13 00:54:49;;;;;;;;;;;18.50;99.90;;;;;;7340691;19;108916;-63
2023/07/13 00:57:18;;;;;;;;;;;18.50;99.90;;;;;;7335942;19;108694;-63
2023/07/13 00:59:48;;;;;;;;;;;18.50;99.90;;;;;;7339298;19;109364;-63
2023/07/13 01:02:16;;;;;;;;;;;18.50;99.90;;;;;;7340325;19;108455;-63
2023/07/13 01:04:43;;;;;;;;;;;18.40;99.90;;;;;;7343607;19;109044;-63
2023/07/13 01:07:11;;;;;;;;;;;18.40;99.90;;;;;;7337831;19;108319;-63
2023/07/13 01:09:38;;;;;;;;;;;18.40;99.90;;;;;;7335119;19;109608;-63
2023/07/13 01:12:06;;;;;;;;;;;18.40;99.90;;;;;;7336717;19;109263;-63
2023/07/13 01:14:34;;;;;;;;;;;18.30;99.90;;;;;;7340266;19;108687;-63
2023/07/13 01:17:01;;;;;;;;;;;18.30;99.90;;;;;;7338015;19;108844;-64
2023/07/13 01:19:39;;;;;;;;;;;18.30;99.90;;;;;;7338014;19;110133;-64
2023/07/13 01:22:08;;;;;;;;;;;18.30;99.90;;;;;;7338225;19;108722;-66
2023/07/13 01:24:36;;;;;;;;;;;18.20;99.90;;;;;;7339858;19;109897;-66
2023/07/13 01:27:03;;;;;;;;;;;18.20;99.90;;;;;;7341730;19;110171;-64
2023/07/13 01:29:31;;;;;;;;;;;18.20;99.90;;;;;;7336714;19;109724;-67
2023/07/13 01:31:59;;;;;;;;;;;18.10;99.90;;;;;;7338493;19;109541;-65
2023/07/13 01:34:27;;;;;;;;;;;18.10;99.90;;;;;;7336224;19;108654;-64
2023/07/13 01:36:54;;;;;;;;;;;18.10;99.90;;;;;;7333348;19;110671;-67
2023/07/13 01:39:22;;;;;;;;;;;18.10;99.90;;;;;;7341011;19;109595;-65
2023/07/13 01:41:49;;;;;;;;;;;18.10;99.90;;;;;;7337254;19;110355;-64
2023/07/13 01:44:16;;;;;;;;;;;18.00;99.90;;;;;;7340002;19;110320;-64
2023/07/13 01:46:44;;;;;;;;;;;18.00;99.90;;;;;;7332027;19;110008;-64
2023/07/13 01:49:11;;;;;;;;;;;18.00;99.90;;;;;;7342997;19;109115;-64
2023/07/13 01:51:38;;;;;;;;;;;18.00;99.90;;;;;;7338005;19;111177;-65
2023/07/13 01:54:05;;;;;;;;;;;18.00;99.90;;;;;;7338618;19;108693;-64
2023/07/13 01:56:33;;;;;;;;;;;18.00;99.90;;;;;;7335761;19;109114;-64
2023/07/13 01:59:00;;;;;;;;;;;18.00;99.90;;;;;;7336375;19;109795;-65
2023/07/13 02:01:27;;;;;;;;;;;17.90;99.90;;;;;;7335345;19;109313;-64
2023/07/13 02:03:54;;;;;;;;;;;17.90;99.90;;;;;;7337086;19;109491;-64
2023/07/13 02:06:21;;;;;;;;;;;17.90;99.90;;;;;;7337399;19;110320;-64
2023/07/13 02:08:48;;;;;;;;;;;17.90;99.90;;;;;;7343881;19;108948;-64
2023/07/13 02:11:15;;;;;;;;;;;17.90;99.90;;;;;;7335679;19;109585;-65
2023/07/13 02:13:43;;;;;;;;;;;17.90;99.90;;;;;;7335473;19;109132;-66
2023/07/13 02:16:10;;;;;;;;;;;17.90;99.90;;;;;;7335805;19;111356;-64
2023/07/13 02:18:38;;;;;;;;;;;17.80;99.90;;;;;;7334598;19;110177;-65
2023/07/13 02:21:05;;;;;;;;;;;17.80;99.90;;;;;;7338518;19;108890;-65
2023/07/13 02:23:32;;;;;;;;;;;17.90;99.90;;;;;;7334741;19;109967;-65
2023/07/13 02:26:02;;;;;;;;;;;17.80;99.90;;;;;;7334548;19;110188;-64
2023/07/13 02:28:29;;;;;;;;;;;17.80;99.90;;;;;;7335441;19;109052;-64
2023/07/13 02:31:03;;;;;;;;;;;17.80;99.90;;;;;;7334552;19;109756;-67
2023/07/13 02:33:31;;;;;;;;;;;17.80;99.90;;;;;;7336668;19;108869;-66
2023/07/13 02:35:58;;;;;;;;;;;17.80;99.90;;;;;;7335154;19;110564;-66
2023/07/13 02:38:25;;;;;;;;;;;17.80;99.90;;;;;;7336107;19;109458;-68
2023/07/13 02:40:52;;;;;;;;;;;17.90;99.90;;;;;;7337968;19;108835;-65
2023/07/13 02:43:20;;;;;;;;;;;17.90;99.90;;;;;;7328924;19;109248;-66
2023/07/13 02:45:47;;;;;;;;;;;17.90;99.90;;;;;;7333215;19;109112;-69
2023/07/13 02:48:14;;;;;;;;;;;17.90;99.90;;;;;;7336627;19;109493;-66
2023/07/13 02:50:41;;;;;;;;;;;18.00;99.90;;;;;;7332708;19;109167;-65
2023/07/13 02:53:08;;;;;;;;;;;18.00;99.90;;;;;;7337160;19;109090;-67
2023/07/13 02:55:35;;;;;;;;;;;18.00;99.90;;;;;;7333104;19;108628;-65
2023/07/13 02:58:02;;;;;;;;;;;18.00;99.90;;;;;;7333526;19;109109;-66
2023/07/13 03:00:29;;;;;;;;;;;18.10;99.90;;;;;;7332592;19;109371;-67
2023/07/13 03:02:57;;;;;;;;;;;18.10;99.90;;;;;;7336541;19;108741;-69
2023/07/13 03:05:24;;;;;;;;;;;18.10;99.90;;;;;;7330639;19;110151;-69
2023/07/13 03:07:51;;;;;;;;;;;18.20;99.90;;;;;;7335068;19;108429;-68
2023/07/13 03:10:18;;;;;;;;;;;18.20;99.90;;;;;;7337789;19;110190;-69
2023/07/13 03:12:45;;;;;;;;;;;18.20;99.90;;;;;;7335572;19;109135;-73
2023/07/13 03:15:12;;;;;;;;;;;18.30;99.90;;;;;;7333692;19;109031;-70
2023/07/13 03:17:40;;;;;;;;;;;18.30;99.90;;;;;;7330957;19;109653;-84
2023/07/13 03:20:07;;;;;;;;;;;18.30;99.90;;;;;;7335785;19;108356;-69
2023/07/13 03:22:34;;;;;;;;;;;18.30;99.90;;;;;;7335463;19;110587;-70
2023/07/13 03:25:02;;;;;;;;;;;18.30;99.90;;;;;;7335868;19;109276;-69
2023/07/13 03:27:31;;;;;;;;;;;18.40;99.90;;;;;;7333156;19;110273;-68
2023/07/13 03:30:00;;;;;;;;;;;18.40;99.90;;;;;;7336480;19;108899;-72
2023/07/13 03:32:27;;;;;;;;;;;18.40;99.90;;;;;;7335221;19;108300;-72
2023/07/13 03:34:54;;;;;;;;;;;18.40;99.90;;;;;;7335157;19;109341;-71
2023/07/13 03:37:22;;;;;;;;;;;18.40;99.90;;;;;;7339193;19;108549;-68
2023/07/13 03:39:50;;;;;;;;;;;18.40;99.90;;;;;;7333079;19;110167;-71
2023/07/13 03:42:17;;;;;;;;;;;18.40;99.90;;;;;;7332212;19;108657;-67
2023/07/13 03:44:50;;;;;;;;;;;18.50;99.90;;;;;;7331649;19;109197;-71
2023/07/13 03:47:17;;;;;;;;;;;18.50;99.90;;;;;;7334091;19;108639;-69
2023/07/13 03:52:14;;;;;;;;;;;18.50;99.90;;;;;;7332652;19;110294;-68
2023/07/13 03:54:44;;;;;;;;;;;18.50;99.90;;;;;;7334655;19;110117;-68
2023/07/13 03:57:11;;;;;;;;;;;18.60;99.90;;;;;;7340862;19;108719;-85
2023/07/13 03:59:50;;;;;;;;;;;18.60;99.90;;;;;;7348427;19;110122;-84
2023/07/13 04:02:18;;;;;;;;;;;18.60;99.90;;;;;;7338422;19;110276;-85
2023/07/13 04:04:55;;;;;;;;;;;18.50;99.90;;;;;;7341638;19;113099;-85
2023/07/13 04:07:22;;;;;;;;;;;18.50;99.90;;;;;;7336368;19;108472;-84
2023/07/13 04:09:49;;;;;;;;;;;18.60;99.90;;;;;;7336823;19;112652;-84
2023/07/13 04:12:19;;;;;;;;;;;18.60;99.90;;;;;;7330427;19;113756;-66
2023/07/13 04:14:46;;;;;;;;;;;18.60;99.90;;;;;;7330331;19;110178;-67
2023/07/13 04:17:13;;;;;;;;;;;18.70;99.90;;;;;;7331765;19;109502;-67
2023/07/13 04:19:40;;;;;;;;;;;18.70;99.90;;;;;;7335971;19;109605;-67
2023/07/13 04:22:07;;;;;;;;;;;18.70;99.90;;;;;;7331797;19;109175;-66
2023/07/13 04:24:34;;;;;;;;;;;18.70;99.90;;;;;;7328818;19;109586;-67
2023/07/13 04:27:02;;;;;;;;;;;18.70;99.90;;;;;;7334501;19;108881;-68
2023/07/13 04:29:30;;;;;;;;;;;18.70;99.90;;;;;;7330511;19;110769;-68
2023/07/13 04:31:57;;;;;;;;;;;18.70;99.90;;;;;;7334505;19;110150;-68
2023/07/13 04:34:24;;;;;;;;;;;18.60;99.90;;;;;;7329866;19;108774;-67
2023/07/13 04:36:52;;;;;;;;;;;18.70;99.90;;;;;;7331251;19;108902;-67
2023/07/13 04:39:19;;;;;;;;;;;18.70;99.90;;;;;;7329627;19;110540;-67
2023/07/13 04:41:47;;;;;;;;;;;18.70;99.90;;;;;;7339279;19;108952;-67
2023/07/13 04:44:14;;;;;;;;;;;18.70;99.90;;;;;;7326846;19;112660;-67
2023/07/13 04:46:41;;;;;;;;;;;18.70;99.90;;;;;;7329542;19;111046;-68
2023/07/13 04:49:09;;;;;;;;;;;18.70;99.90;;;;;;7328059;19;109852;-67
2023/07/13 04:51:36;;;;;;;;;;;18.80;99.90;;;;;;7331830;19;111336;-67
2023/07/13 04:54:04;;;;;;;;;;;18.70;99.90;;;;;;7331431;19;110856;-68
2023/07/13 04:56:31;;;;;;;;;;;18.80;99.90;;;;;;7330690;19;108622;-68
2023/07/13 04:58:59;;;;;;;;;;;18.80;99.90;;;;;;7328945;19;109571;-67
2023/07/13 05:01:26;;;;;;;;;;;18.80;99.90;;;;;;7328719;19;111018;-67
2023/07/13 05:03:56;;;;;;;;;;;18.80;99.90;;;;;;7333370;19;110687;-67
2023/07/13 05:06:26;;;;;;;;;;;18.90;99.90;;;;;;7330188;19;108919;-67
2023/07/13 05:08:54;;;;;;;;;;;18.80;99.90;;;;;;7329109;19;109857;-67
2023/07/13 05:11:22;;;;;;;;;;;18.90;99.90;;;;;;7330125;19;109523;-67
2023/07/13 05:13:49;;;;;;;;;;;18.90;99.90;;;;;;7332030;19;109407;-68
2023/07/13 05:16:16;;;;;;;;;;;18.90;99.90;;;;;;7328719;19;109612;-67
2023/07/13 05:18:44;;;;;;;;;;;18.90;99.90;;;;;;7333589;19;109728;-67
2023/07/13 05:21:11;;;;;;;;;;;18.90;99.90;;;;;;7327229;19;109037;-67
2023/07/13 05:23:41;;;;;;;;;;;19.00;99.90;;;;;;7331948;19;110460;-67
2023/07/13 05:26:08;;;;;;;;;;;19.00;99.90;;;;;;7332849;19;109707;-68
2023/07/13 05:28:36;;;;;;;;;;;18.90;99.90;;;;;;7331316;19;109985;-67
2023/07/13 05:31:04;;;;;;;;;;;18.90;99.90;;;;;;7335375;19;110179;-68
2023/07/13 05:33:31;;;;;;;;;;;18.90;99.90;;;;;;7338642;19;109046;-67
2023/07/13 05:36:00;;;;;;;;;;;19.00;99.90;;;;;;7336172;19;109420;-67
2023/07/13 05:38:27;;;;;;;;;;;19.00;99.90;;;;;;7337858;19;110203;-67
2023/07/13 05:40:55;;;;;;;;;;;19.00;99.90;;;;;;7337148;19;110631;-67
2023/07/13 05:43:23;;;;;;;;;;;19.10;99.90;;;;;;7338993;19;110086;-68
2023/07/13 05:45:54;;;;;;;;;;;19.20;99.90;;;;;;7338333;19;109384;-68
2023/07/13 05:48:21;;;;;;;;;;;19.20;99.90;;;;;;7344199;19;109475;-67
2023/07/13 05:50:49;;;;;;;;;;;19.30;99.90;;;;;;7338243;19;111971;-64
2023/07/13 05:53:16;;;;;;;;;;;19.30;99.90;;;;;;7338329;19;108913;-67
2023/07/13 05:55:44;;;;;;;;;;;19.30;99.90;;;;;;7340207;19;109204;-67
2023/07/13 05:58:11;;;;;;;;;;;19.30;99.90;;;;;;7337937;19;109800;-67
2023/07/13 06:00:38;;;;;;;;;;;19.30;99.90;;;;;;7340477;19;109430;-67
2023/07/13 06:03:06;;;;;;;;;;;19.30;99.90;;;;;;7338678;19;109078;-67
2023/07/13 06:05:37;;;;;;;;;;;19.40;99.90;;;;;;7334317;19;109558;-67
2023/07/13 06:08:05;;;;;;;;;;;19.40;99.90;;;;;;7342158;19;109142;-67
2023/07/13 06:10:33;;;;;;;;;;;19.40;99.90;;;;;;7338745;19;110062;-67
2023/07/13 06:13:01;;;;;;;;;;;19.50;99.90;;;;;;7336298;19;109342;-67
2023/07/13 06:15:28;;;;;;;;;;;19.50;99.90;;;;;;7338140;19;109684;-67
2023/07/13 06:17:55;;;;;;;;;;;19.50;99.90;;;;;;7335933;19;109443;-68
2023/07/13 06:20:22;;;;;;;;;;;19.50;99.90;;;;;;7338540;19;108994;-67
2023/07/13 06:22:49;;;;;;;;;;;19.60;99.90;;;;;;7337285;19;109155;-67
2023/07/13 06:25:17;;;;;;;;;;;19.60;99.90;;;;;;7337057;19;110394;-68
2023/07/13 06:27:44;;;;;;;;;;;19.60;99.90;;;;;;7336555;19;108815;-67
2023/07/13 06:30:12;;;;;;;;;;;19.60;99.90;;;;;;7341251;19;108272;-67
2023/07/13 06:32:39;;;;;;;;;;;19.60;99.90;;;;;;7336526;19;108718;-67
2023/07/13 06:35:07;;;;;;;;;;;19.70;99.90;;;;;;7336477;19;109912;-67
2023/07/13 06:37:35;;;;;;;;;;;19.70;99.90;;;;;;7335579;19;110221;-67
2023/07/13 06:40:03;;;;;;;;;;;19.70;99.90;;;;;;7337559;19;108586;-67
2023/07/13 06:42:30;;;;;;;;;;;19.80;99.90;;;;;;7334137;19;109361;-67
2023/07/13 06:44:57;;;;;;;;;;;19.80;99.90;;;;;;7337559;19;110080;-67
2023/07/13 06:47:24;;;;;;;;;;;19.80;99.90;;;;;;7335584;19;110520;-67
2023/07/13 06:49:52;;;;;;;;;;;19.80;99.90;;;;;;7336533;19;108839;-67
2023/07/13 06:52:19;;;;;;;;;;;19.90;99.90;;;;;;7340634;19;109687;-67
2023/07/13 06:54:46;;;;;;;;;;;19.90;99.90;;;;;;7337544;19;108789;-66
2023/07/13 06:57:13;;;;;;;;;;;19.90;99.90;;;;;;7334803;19;108884;-67
2023/07/13 06:59:40;;;;;;;;;;;20.00;99.90;;;;;;7338651;19;109831;-67
2023/07/13 07:02:09;;;;;;;;;;;20.00;99.90;;;;;;7335775;19;109580;-67
2023/07/13 07:04:36;;;;;;;;;;;20.00;99.90;;;;;;7334760;19;111377;-67
2023/07/13 07:07:03;;;;;;;;;;;20.00;99.90;;;;;;7332761;19;110428;-67
2023/07/13 07:09:31;;;;;;;;;;;20.10;99.90;;;;;;7335323;19;109072;-67
2023/07/13 07:11:58;;;;;;;;;;;20.10;99.90;;;;;;7333600;19;109328;-67
2023/07/13 07:14:30;;;;;;;;;;;20.20;99.90;;;;;;7341496;19;108516;-67
2023/07/13 07:16:58;;;;;;;;;;;20.30;99.90;;;;;;7336095;19;114078;-67
2023/07/13 07:19:27;;;;;;;;;;;20.30;99.90;;;;;;7334772;19;108819;-67
2023/07/13 07:21:54;;;;;;;;;;;20.40;99.90;;;;;;7333655;19;109168;-67
2023/07/13 07:24:21;;;;;;;;;;;20.40;99.90;;;;;;7333200;19;109087;-67
2023/07/13 07:26:48;;;;;;;;;;;20.40;99.90;;;;;;7336018;19;108620;-67
2023/07/13 07:29:18;;;;;;;;;;;20.40;99.90;;;;;;7332365;19;108824;-67
2023/07/13 07:31:48;;;;;;;;;;;20.40;99.90;;;;;;7334913;19;109604;-67
2023/07/13 07:34:31;;;;;;;;;;;20.40;99.90;;;;;;7335049;19;108716;-67
2023/07/13 07:36:59;;;;;;;;;;;20.50;99.90;;;;;;7339488;19;109425;-67
2023/07/13 07:39:29;;;;;;;;;;;20.60;99.90;;;;;;7334698;19;108916;-66
2023/07/13 07:41:57;;;;;;;;;;;20.80;99.90;;;;;;7332832;19;109646;-66
2023/07/13 07:44:24;;;;;;;;;;;20.90;99.90;;;;;;7332997;19;109895;-67
2023/07/13 07:46:51;;;;;;;;;;;21.00;99.90;;;;;;7331331;19;109064;-67
2023/07/13 07:49:18;;;;;;;;;;;21.10;99.90;;;;;;7333355;19;109426;-67
2023/07/13 07:51:53;;;;;;;;;;;21.20;99.90;;;;;;7336335;19;109204;-94
2023/07/13 07:54:21;;;;;;;;;;;21.30;99.90;;;;;;7363248;19;108749;-67
2023/07/13 07:57:09;;;;;;;;;;;21.40;99.90;;;;;;7330964;19;109108;-67
2023/07/13 07:59:39;;;;;;;;;;;21.60;99.90;;;;;;7341899;19;113054;-67
2023/07/13 08:02:10;;;;;;;;;;;21.70;99.90;;;;;;7332168;19;109324;-67
2023/07/13 08:04:57;;;;;;;;;;;21.70;99.90;;;;;;7334821;19;109113;-67
2023/07/13 08:07:27;;;;;;;;;;;21.80;99.90;;;;;;7334994;19;109028;-67
2023/07/13 08:09:54;;;;;;;;;;;21.80;99.90;;;;;;7334662;19;109034;-67
2023/07/13 08:12:21;;;;;;;;;;;21.80;99.90;;;;;;7333331;19;110326;-67
2023/07/13 08:14:57;;;;;;;;;;;22.00;99.90;;;;;;7333720;19;109381;-67
2023/07/13 08:17:25;;;;;;;;;;;22.10;99.90;;;;;;7332914;19;108386;-67
2023/07/13 08:19:53;;;;;;;;;;;22.20;99.90;;;;;;7339453;19;110351;-67
2023/07/13 08:22:20;;;;;;;;;;;22.30;99.90;;;;;;7334494;19;109429;-67
2023/07/13 08:24:55;;;;;;;;;;;22.40;99.90;;;;;;7331851;19;110231;-67
2023/07/13 08:27:22;;;;;;;;;;;22.50;99.90;;;;;;7333732;19;108826;-67
2023/07/13 08:29:50;;;;;;;;;;;22.60;99.90;;;;;;7329143;19;109435;-67
2023/07/13 08:32:17;;;;;;;;;;;22.70;99.90;;;;;;7330767;19;109057;-67
2023/07/13 08:34:46;;;;;;;;;;;22.70;99.90;;;;;;7327843;19;109398;-67
2023/07/13 08:37:13;;;;;;;;;;;22.70;99.90;;;;;;7331359;19;108783;-67
2023/07/13 08:39:41;;;;;;;;;;;22.70;99.90;;;;;;7332106;19;110196;-67
2023/07/13 08:42:28;;;;;;;;;;;22.70;99.90;;;;;;7338342;19;109172;-67
2023/07/13 08:45:14;;;;;;;;;;;22.60;99.90;;;;;;7331136;19;109472;-67
2023/07/13 08:47:44;;;;;;;;;;;22.60;99.90;;;;;;7326845;19;111251;-67
2023/07/13 08:50:13;;;;;;;;;;;22.60;99.90;;;;;;7335380;19;109649;-67
2023/07/13 08:52:42;;;;;;;;;;;22.70;99.90;;;;;;7330895;19;109221;-67
2023/07/13 08:55:14;;;;;;;;;;;22.70;99.90;;;;;;7332793;19;108734;-67
2023/07/13 08:57:43;;;;;;;;;;;22.70;99.90;;;;;;7333030;19;108688;-67
2023/07/13 09:00:12;;;;;;;;;;;22.70;99.90;;;;;;7331557;19;109657;-67
2023/07/13 09:02:57;;;;;;;;;;;22.70;99.90;;;;;;7334223;19;111296;-67
2023/07/13 09:05:34;;;;;;;;;;;22.60;99.90;;;;;;7341258;19;109751;-67
2023/07/13 09:08:01;;;;;;;;;;;22.50;99.90;;;;;;7338743;19;108417;-67
2023/07/13 09:10:43;;;;;;;;;;;22.60;99.90;;;;;;7338039;19;110139;-67
2023/07/13 09:13:24;;;;;;;;;;;22.80;99.90;;;;;;7335555;19;109529;-67
2023/07/13 09:15:52;;;;;;;;;;;23.00;99.90;;;;;;7342154;19;109313;-67
2023/07/13 09:18:24;;;;;;;;;;;23.10;99.90;;;;;;7337945;19;108921;-67
2023/07/13 09:20:56;;;;;;;;;;;23.10;99.90;;;;;;7341585;19;109254;-67
2023/07/13 09:23:25;;;;;;;;;;;23.20;99.90;;;;;;7337040;19;109150;-66
2023/07/13 09:25:56;;;;;;;;;;;23.40;99.90;;;;;;7339235;19;108722;-67
2023/07/13 09:28:27;;;;;;;;;;;23.50;99.90;;;;;;7344844;19;110163;-67
2023/07/13 09:31:00;;;;;;;;;;;23.60;99.90;;;;;;7340967;19;108901;-67
2023/07/13 09:33:29;;;;;;;;;;;23.80;99.90;;;;;;7340037;19;110632;-67
2023/07/13 09:35:58;;;;;;;;;;;24.00;99.90;;;;;;7336995;19;108318;-67
2023/07/13 09:38:28;;;;;;;;;;;24.20;99.90;;;;;;7340031;19;108781;-68
2023/07/13 09:41:10;;;;;;;;;;;24.20;99.90;;;;;;7338950;19;110351;-67
2023/07/13 09:43:38;;;;;;;;;;;24.20;99.90;;;;;;7338354;19;109176;-67
2023/07/13 09:46:19;;;;;;;;;;;24.10;99.90;;;;;;7335414;19;113775;-67
2023/07/13 09:48:46;;;;;;;;;;;24.00;99.90;;;;;;7337970;19;109308;-67
2023/07/13 09:51:15;;;;;;;;;;;23.90;99.90;;;;;;7341780;19;109842;-67
2023/07/13 09:53:43;;;;;;;;;;;23.70;99.90;;;;;;7336709;19;110021;-66
2023/07/13 09:56:20;;;;;;;;;;;23.50;99.90;;;;;;7338333;19;110324;-69
2023/07/13 09:58:47;;;;;;;;;;;23.40;99.90;;;;;;7339585;19;108584;-67
2023/07/13 10:01:15;;;;;;;;;;;23.30;99.90;;;;;;7338363;19;113384;-65
2023/07/13 10:03:53;;;;;;;;;;;23.20;99.90;;;;;;7339432;19;110125;-66
2023/07/13 10:06:26;;;;;;;;;;;23.20;99.90;;;;;;7338159;19;110334;-66
2023/07/13 10:08:55;;;;;;;;;;;23.50;99.90;;;;;;7338749;19;109731;-65
2023/07/13 10:11:22;;;;;;;;;;;23.70;99.90;;;;;;7337143;19;108917;-65
2023/07/13 10:13:56;;;;;;;;;;;23.90;99.90;;;;;;7345451;19;108450;-65
2023/07/13 10:16:25;;;;;;;;;;;24.10;99.90;;;;;;7337251;19;110644;-66
2023/07/13 10:18:54;;;;;;;;;;;24.20;99.90;;;;;;7339546;19;108624;-70
2023/07/13 10:21:24;;;;;;;;;;;24.20;99.90;;;;;;7338700;19;109269;-71
2023/07/13 10:24:05;;;;;;;;;;;24.10;99.90;;;;;;7339597;19;110670;-67
2023/07/13 10:26:34;;;;;;;;;;;24.10;99.90;;;;;;7338675;19;108938;-67
2023/07/13 10:29:07;;;;;;;;;;;24.20;99.90;;;;;;7335655;19;109275;-69
2023/07/13 10:31:36;;;;;;;;;;;24.10;99.90;;;;;;7337295;19;108466;-69
2023/07/13 10:34:05;;;;;;;;;;;24.10;99.90;;;;;;7343600;19;110478;-73
2023/07/13 10:36:34;;;;;;;;;;;24.10;99.90;;;;;;7334662;19;109758;-67
2023/07/13 10:39:03;;;;;;;;;;;24.10;99.90;;;;;;7331759;19;109563;-67
2023/07/13 10:41:34;;;;;;;;;;;24.10;99.90;;;;;;7337123;19;109396;-69
2023/07/13 10:44:04;;;;;;;;;;;24.20;99.90;;;;;;7332637;19;109947;-68
2023/07/13 10:46:31;;;;;;;;;;;24.40;99.90;;;;;;7338064;19;109010;-67
2023/07/13 10:49:01;;;;;;;;;;;24.60;99.90;;;;;;7333830;19;109304;-66
2023/07/13 10:51:29;;;;;;;;;;;24.70;99.90;;;;;;7338262;19;108724;-70
2023/07/13 10:54:22;;;;;;;;;;;24.60;99.20;;;;;;7335814;19;109604;-68
2023/07/13 10:57:06;;;;;;;;;;;24.50;99.80;;;;;;7340394;19;109527;-69
2023/07/13 10:59:33;;;;;;;;;;;24.70;99.90;;;;;;7336310;19;108201;-66
2023/07/13 11:02:06;;;;;;;;;;;25.00;99.80;;;;;;7334218;19;109367;-67
2023/07/13 11:04:41;;;;;;;;;;;25.10;99.50;;;;;;7338373;19;110146;-67
2023/07/13 11:07:29;;;;;;;;;;;25.20;99.30;;;;;;7331736;19;109595;-72
2023/07/13 11:09:57;;;;;;;;;;;25.20;99.30;;;;;;7334849;19;109545;-68
2023/07/13 11:12:26;;;;;;;;;;;25.10;99.30;;;;;;7335103;19;112201;-70
2023/07/13 11:14:56;;;;;;;;;;;24.90;99.60;;;;;;7334131;19;109056;-70
2023/07/13 11:17:41;;;;;;;;;;;24.80;98.10;;;;;;7336142;19;109389;-70
2023/07/13 11:20:11;;;;;;;;;;;24.80;99.00;;;;;;7338266;19;108761;-77
2023/07/13 11:22:52;;;;;;;;;;;24.70;98.30;;;;;;7335311;19;110061;-72
2023/07/13 11:25:19;;;;;;;;;;;24.60;98.20;;;;;;7335765;19;111334;-72
2023/07/13 11:27:50;;;;;;;;;;;24.50;98.20;;;;;;7331098;19;108956;-75
2023/07/13 11:30:21;;;;;;;;;;;24.50;98.30;;;;;;7334322;19;109856;-74
2023/07/13 11:33:06;;;;;;;;;;;24.50;98.80;;;;;;7334875;19;108609;-68
2023/07/13 11:35:35;;;;;;;;;;;24.60;99.30;;;;;;7334345;19;109114;-76
2023/07/13 11:38:09;;;;;;;;;;;24.60;99.10;;;;;;7335123;19;110277;-75
2023/07/13 11:40:36;;;;;;;;;;;24.60;99.00;;;;;;7330623;19;109102;-68
2023/07/13 11:43:06;;;;;;;;;;;24.60;98.20;;;;;;7340539;19;109857;-69
2023/07/13 11:45:34;;;;;;;;;;;24.50;97.50;;;;;;7333809;19;109597;-78
2023/07/13 11:48:21;;;;;;;;;;;24.40;98.30;;;;;;7333804;19;111784;-74
2023/07/13 11:50:53;;;;;;;;;;;24.30;97.70;;;;;;7334837;19;109216;-79
2023/07/13 11:53:20;;;;;;;;;;;24.20;98.00;;;;;;7334403;19;108931;-76
2023/07/13 11:55:49;;;;;;;;;;;24.30;98.20;;;;;;7332833;19;109633;-75
2023/07/13 11:58:19;;;;;;;;;;;24.20;98.10;;;;;;7335631;19;111835;-68
2023/07/13 12:00:46;;;;;;;;;;;24.20;98.30;;;;;;7333948;19;108768;-76
2023/07/13 12:03:17;;;;;;;;;;;24.10;98.40;;;;;;7334941;19;108414;-71
2023/07/13 12:05:58;;;;;;;;;;;24.00;98.20;;;;;;7339691;19;109279;-77
2023/07/13 12:08:25;;;;;;;;;;;23.90;98.30;;;;;;7315902;19;109124;-68
2023/07/13 12:10:57;;;;;;;;;;;23.80;98.60;;;;;;7329172;19;110482;-72
2023/07/13 12:13:26;;;;;;;;;;;23.90;98.80;;;;;;7330393;19;109119;-69
2023/07/13 12:15:54;;;;;;;;;;;23.80;98.70;;;;;;7331721;19;109933;-69
2023/07/13 12:18:25;;;;;;;;;;;23.80;98.70;;;;;;7331698;19;109580;-70
2023/07/13 12:20:55;;;;;;;;;;;23.80;98.70;;;;;;7334707;19;108926;-73
2023/07/13 12:23:30;;;;;;;;;;;23.80;98.60;;;;;;7333048;19;109045;-72
2023/07/13 12:25:58;;;;;;;;;;;23.70;98.70;;;;;;7330750;19;109053;-70
2023/07/13 12:28:33;;;;;;;;;;;23.60;99.10;;;;;;7341029;19;109816;-64
2023/07/13 12:31:22;;;;;;;;;;;23.40;99.90;;;;;;7333161;19;110165;-64
2023/07/13 12:33:56;;;;;;;;;;;23.30;99.90;;;;;;7331176;19;110046;-64
2023/07/13 12:36:24;;;;;;;;;;;23.30;99.90;;;;;;7336867;19;109073;-63
2023/07/13 12:38:51;;;;;;;;;;;23.20;99.90;;;;;;7334145;19;110420;-64
2023/07/13 12:41:18;;;;;;;;;;;23.10;99.90;;;;;;7336267;19;108641;-64
2023/07/13 12:43:46;;;;;;;;;;;23.10;99.90;;;;;;7335502;19;109484;-65
2023/07/13 12:46:18;;;;;;;;;;;23.00;99.90;;;;;;7330521;19;110196;-64
2023/07/13 12:48:48;;;;;;;;;;;22.90;99.90;;;;;;7340163;19;110445;-64
2023/07/13 12:51:30;;;;;;;;;;;22.80;99.90;;;;;;7333980;19;114200;-64
2023/07/13 12:54:06;;;;;;;;;;;22.70;99.90;;;;;;7333121;19;108551;-64
2023/07/13 12:56:58;;;;;;;;;;;22.60;99.90;;;;;;7334035;19;109391;-65
2023/07/13 12:59:27;;;;;;;;;;;22.50;99.90;;;;;;7333648;19;109149;-65
2023/07/13 13:01:54;;;;;;;;;;;22.40;99.90;;;;;;7332928;19;112580;-64
2023/07/13 13:04:22;;;;;;;;;;;22.40;99.90;;;;;;7333679;19;108812;-64
2023/07/13 13:09:53;;;;;;;;;;;22.30;99.90;;;;;;7331803;19;108845;-65
2023/07/13 13:15:01;;;;;;;;;;;22.20;99.90;;;;;;7330791;19;108985;-68
2023/07/13 13:17:30;;;;;;;;;;;22.20;99.90;;;;;;7334108;19;108896;-64
2023/07/13 13:19:57;;;;;;;;;;;22.20;99.90;;;;;;7332767;19;109369;-64
2023/07/13 13:22:24;;;;;;;;;;;22.10;99.90;;;;;;7333874;19;108922;-64
2023/07/13 13:24:51;;;;;;;;;;;22.20;99.90;;;;;;7328267;19;108845;-64
2023/07/13 13:27:22;;;;;;;;;;;22.20;99.90;;;;;;7330199;19;108885;-63
2023/07/13 13:29:51;;;;;;;;;;;22.20;99.90;;;;;;7328439;19;109972;-64
2023/07/13 13:32:18;;;;;;;;;;;22.20;99.90;;;;;;7333331;19;108689;-64
2023/07/13 13:34:45;;;;;;;;;;;22.30;99.90;;;;;;7336959;19;110863;-64
2023/07/13 13:37:23;;;;;;;;;;;22.30;99.90;;;;;;7331896;19;110346;-64
2023/07/13 13:39:51;;;;;;;;;;;22.40;99.90;;;;;;7331921;19;109176;-64
2023/07/13 13:42:34;;;;;;;;;;;22.50;99.90;;;;;;7331361;19;112288;-67
2023/07/13 13:45:02;;;;;;;;;;;22.60;99.90;;;;;;7333682;19;108958;-67
2023/07/13 13:47:31;;;;;;;;;;;22.70;99.90;;;;;;7329982;19;114606;-62
2023/07/13 13:49:58;;;;;;;;;;;22.80;99.90;;;;;;7333814;19;108446;-62
2023/07/13 13:52:25;;;;;;;;;;;22.90;99.90;;;;;;7338308;19;109107;-63
2023/07/13 13:54:55;;;;;;;;;;;23.00;99.90;;;;;;7338101;19;110502;-66
2023/07/13 13:57:24;;;;;;;;;;;23.00;99.90;;;;;;7339561;19;110152;-63
2023/07/13 13:59:52;;;;;;;;;;;23.10;99.90;;;;;;7336229;19;109576;-62
2023/07/13 14:02:22;;;;;;;;;;;23.20;99.90;;;;;;7336771;19;111642;-62
2023/07/13 14:04:52;;;;;;;;;;;23.20;99.90;;;;;;7339988;19;108630;-62
2023/07/13 14:07:19;;;;;;;;;;;23.30;99.90;;;;;;7335124;19;110790;-62
2023/07/13 14:09:46;;;;;;;;;;;23.30;99.90;;;;;;7338052;19;108873;-62
2023/07/13 14:12:13;;;;;;;;;;;23.40;99.90;;;;;;7338964;19;108783;-62
2023/07/13 14:14:41;;;;;;;;;;;23.50;99.90;;;;;;7336700;19;109138;-62
2023/07/13 14:17:22;;;;;;;;;;;23.60;99.90;;;;;;7338705;19;108561;-64
2023/07/13 14:19:51;;;;;;;;;;;23.70;99.90;;;;;;7341573;19;108856;-63
2023/07/13 14:22:19;;;;;;;;;;;23.80;99.90;;;;;;7337564;19;108842;-62
2023/07/13 14:24:46;;;;;;;;;;;24.00;99.90;;;;;;7336775;19;108837;-63